createdAt,value
2018-06-28T00:00:58.699Z,97533.13
2018-06-28T00:03:28.123Z,97538.55
2018-06-28T00:05:57.280Z,97541.30
2018-06-28T00:08:26.555Z,97540.53
2018-06-28T00:10:55.700Z,97541.92
2018-06-28T00:13:25.207Z,97547.31
2018-06-28T00:15:54.607Z,97537.85
2018-06-28T00:18:24.164Z,97536.77
2018-06-28T00:20:53.612Z,97537.84
2018-06-28T00:23:23.171Z,97538.61
2018-06-28T00:25:52.968Z,97533.78
2018-06-28T00:28:22.147Z,97535.95
2018-06-28T00:30:51.571Z,97533.52
2018-06-28T00:33:20.911Z,97534.61
2018-06-28T00:35:50.191Z,97543.00
2018-06-28T00:38:19.382Z,97535.70
2018-06-28T00:40:48.537Z,97531.09
2018-06-28T00:43:17.707Z,97536.00
2018-06-28T00:45:46.875Z,97536.81
2018-06-28T00:48:16.032Z,97532.47
2018-06-28T00:50:45.203Z,97540.30
2018-06-28T00:53:14.363Z,97535.17
2018-06-28T00:55:43.570Z,97535.73
2018-06-28T00:58:12.774Z,97528.70
2018-06-28T01:00:42.200Z,97531.13
2018-06-28T01:03:11.375Z,97526.27
2018-06-28T01:05:40.643Z,97534.08
2018-06-28T01:08:10.938Z,97524.84
2018-06-28T01:10:40.110Z,97531.36
2018-06-28T01:13:09.479Z,97528.66
2018-06-28T01:15:38.659Z,97523.78
2018-06-28T01:18:07.811Z,97537.84
2018-06-28T01:20:37.115Z,97537.55
2018-06-28T01:23:06.287Z,97536.16
2018-06-28T01:25:35.624Z,97526.70
2018-06-28T01:28:04.939Z,97534.30
2018-06-28T01:30:34.159Z,97533.50
2018-06-28T01:33:03.343Z,97532.63
2018-06-28T01:35:32.615Z,97534.23
2018-06-28T01:38:03.061Z,97537.46
2018-06-28T01:40:32.253Z,97528.31
2018-06-28T01:43:27.726Z,97525.59
2018-06-28T01:45:57.895Z,97532.60
2018-06-28T01:48:27.061Z,97525.30
2018-06-28T01:50:56.495Z,97525.81
2018-06-28T01:53:26.001Z,97524.41
2018-06-28T01:55:55.200Z,97527.92
2018-06-28T01:58:24.703Z,97532.23
2018-06-28T02:00:53.916Z,97528.20
2018-06-28T02:03:23.136Z,97532.25
2018-06-28T02:05:54.367Z,97529.28
2018-06-28T02:08:23.587Z,97531.65
2018-06-28T02:10:53.370Z,97533.23
2018-06-28T02:13:22.855Z,97522.95
2018-06-28T02:15:52.037Z,97522.91
2018-06-28T02:18:21.207Z,97527.46
2018-06-28T02:20:50.719Z,97530.16
2018-06-28T02:23:20.307Z,97533.44
2018-06-28T02:25:49.931Z,97529.09
2018-06-28T02:28:19.240Z,97527.16
2018-06-28T02:30:48.399Z,97526.56
2018-06-28T02:33:17.920Z,97528.94
2018-06-28T02:35:47.184Z,97527.03
2018-06-28T02:38:16.352Z,97525.44
2018-06-28T02:40:45.512Z,97520.51
2018-06-28T02:43:14.907Z,97523.17
2018-06-28T02:45:44.187Z,97522.00
2018-06-28T02:48:13.480Z,97524.70
2018-06-28T02:50:42.655Z,97520.94
2018-06-28T02:53:11.823Z,97522.54
2018-06-28T02:55:40.977Z,97521.97
2018-06-28T02:58:10.124Z,97520.02
2018-06-28T03:00:39.321Z,97515.97
2018-06-28T03:03:08.503Z,97521.89
2018-06-28T03:05:37.911Z,97526.47
2018-06-28T03:08:08.024Z,97518.95
2018-06-28T03:10:37.469Z,97523.03
2018-06-28T03:13:06.835Z,97520.27
2018-06-28T03:15:36.024Z,97519.33
2018-06-28T03:18:05.411Z,97520.50
2018-06-28T03:20:34.595Z,97519.63
2018-06-28T03:23:03.895Z,97521.08
2018-06-28T03:25:33.389Z,97519.73
2018-06-28T03:28:02.520Z,97512.09
2018-06-28T03:30:32.372Z,97517.04
2018-06-28T03:33:01.525Z,97510.59
2018-06-28T03:35:30.703Z,97509.91
2018-06-28T03:38:00.075Z,97509.73
2018-06-28T03:40:29.042Z,97505.69
2018-06-28T03:42:58.171Z,97510.80
2018-06-28T03:45:27.379Z,97510.27
2018-06-28T03:47:56.539Z,97508.53
2018-06-28T03:50:25.716Z,97508.89
2018-06-28T03:52:54.879Z,97505.18
2018-06-28T03:55:26.139Z,97503.52
2018-06-28T03:57:55.711Z,97510.03
2018-06-28T04:00:24.883Z,97517.56
2018-06-28T04:02:54.051Z,97514.93
2018-06-28T04:05:23.535Z,97522.48
2018-06-28T04:07:52.959Z,97514.13
2018-06-28T04:10:22.123Z,97514.17
2018-06-28T04:12:51.268Z,97519.60
2018-06-28T04:15:20.462Z,97516.94
2018-06-28T04:17:49.858Z,97523.70
2018-06-28T04:20:19.544Z,97521.01
2018-06-28T04:22:48.728Z,97524.28
2018-06-28T04:25:17.931Z,97524.80
2018-06-28T04:27:47.095Z,97524.06
2018-06-28T04:30:16.286Z,97515.97
2018-06-28T04:32:45.475Z,97516.23
2018-06-28T04:35:14.989Z,97521.09
2018-06-28T04:37:44.167Z,97521.38
2018-06-28T04:40:13.508Z,97514.92
2018-06-28T04:42:42.812Z,97520.33
2018-06-28T04:45:11.966Z,97516.53
2018-06-28T04:47:41.459Z,97515.17
2018-06-28T04:50:10.627Z,97516.24
2018-06-28T04:52:40.115Z,97518.94
2018-06-28T04:55:09.259Z,97522.72
2018-06-28T04:57:38.523Z,97526.75
2018-06-28T05:00:08.019Z,97525.92
2018-06-28T05:02:37.207Z,97522.98
2018-06-28T05:05:06.771Z,97524.85
2018-06-28T05:07:35.932Z,97514.28
2018-06-28T05:10:05.131Z,97515.05
2018-06-28T05:12:34.795Z,97517.17
2018-06-28T05:15:04.071Z,97511.20
2018-06-28T05:17:33.699Z,97509.52
2018-06-28T05:20:02.873Z,97513.20
2018-06-28T05:22:32.037Z,97514.73
2018-06-28T05:25:01.195Z,97517.89
2018-06-28T05:27:30.364Z,97514.05
2018-06-28T05:29:59.669Z,97520.98
2018-06-28T05:32:28.894Z,97523.11
2018-06-28T05:34:58.066Z,97523.87
2018-06-28T05:37:27.223Z,97527.91
2018-06-28T05:41:20.804Z,97526.23
2018-06-28T05:43:49.991Z,97527.73
2018-06-28T05:46:19.160Z,97528.46
2018-06-28T05:48:48.486Z,97523.56
2018-06-28T05:51:18.310Z,97516.43
2018-06-28T05:53:47.496Z,97521.22
2018-06-28T05:56:16.648Z,97527.80
2018-06-28T05:58:45.817Z,97527.38
2018-06-28T06:01:15.036Z,97529.78
2018-06-28T06:03:44.303Z,97526.95
2018-06-28T06:06:13.467Z,97517.88
2018-06-28T06:08:42.632Z,97520.67
2018-06-28T06:11:11.836Z,97515.89
2018-06-28T06:13:41.008Z,97524.19
2018-06-28T06:16:10.171Z,97524.36
2018-06-28T06:18:39.499Z,97526.17
2018-06-28T06:21:08.696Z,97523.85
2018-06-28T06:23:37.900Z,97526.44
2018-06-28T06:26:07.247Z,97520.20
2018-06-28T06:28:36.471Z,97521.13
2018-06-28T06:31:05.671Z,97517.30
2018-06-28T06:33:35.024Z,97516.56
2018-06-28T06:36:04.229Z,97521.10
2018-06-28T06:38:33.476Z,97528.23
2018-06-28T06:41:02.627Z,97524.39
2018-06-28T06:43:31.783Z,97527.19
2018-06-28T06:46:01.015Z,97524.81
2018-06-28T06:48:30.285Z,97522.30
2018-06-28T06:50:59.475Z,97519.83
2018-06-28T06:53:28.860Z,97525.91
2018-06-28T06:55:58.031Z,97520.50
2018-06-28T06:58:27.182Z,97523.68
2018-06-28T07:00:56.519Z,97514.45
2018-06-28T07:03:25.968Z,97514.64
2018-06-28T07:05:55.095Z,97518.91
2018-06-28T07:08:24.252Z,97518.13
2018-06-28T07:10:53.483Z,97516.02
2018-06-28T07:13:22.983Z,97512.56
2018-06-28T07:15:52.490Z,97510.71
2018-06-28T07:18:21.655Z,97517.30
2018-06-28T07:20:51.756Z,97522.92
2018-06-28T07:23:20.851Z,97521.54
2018-06-28T07:25:50.044Z,97524.28
2018-06-28T07:28:19.449Z,97517.19
2018-06-28T07:30:48.579Z,97531.39
2018-06-28T07:33:17.739Z,97512.77
2018-06-28T07:35:46.901Z,97524.11
2018-06-28T07:38:16.046Z,97522.78
2018-06-28T07:40:45.495Z,97525.32
2018-06-28T07:43:14.680Z,97522.51
2018-06-28T07:45:43.869Z,97525.47
2018-06-28T07:48:13.059Z,97517.70
2018-06-28T07:50:42.523Z,97517.33
2018-06-28T07:53:11.723Z,97514.27
2018-06-28T07:55:40.900Z,97513.55
2018-06-28T07:58:10.071Z,97507.13
2018-06-28T08:00:39.239Z,97503.02
2018-06-28T08:03:08.415Z,97508.61
2018-06-28T08:05:37.571Z,97508.66
2018-06-28T08:08:07.032Z,97510.78
2018-06-28T08:10:36.200Z,97501.85
2018-06-28T08:13:05.367Z,97503.67
2018-06-28T08:15:34.519Z,97494.50
2018-06-28T08:18:04.107Z,97507.66
2018-06-28T08:20:33.272Z,97514.38
2018-06-28T08:23:02.475Z,97509.27
2018-06-28T08:25:31.986Z,97507.55
2018-06-28T08:28:01.280Z,97504.70
2018-06-28T08:30:30.451Z,97498.72
2018-06-28T08:33:00.021Z,97501.23
2018-06-28T08:35:29.203Z,97499.59
2018-06-28T08:37:58.489Z,97504.48
2018-06-28T08:40:27.755Z,97505.06
2018-06-28T08:42:56.911Z,97504.02
2018-06-28T08:45:26.054Z,97504.62
2018-06-28T08:47:55.243Z,97500.09
2018-06-28T08:50:24.495Z,97501.98
2018-06-28T08:52:53.676Z,97497.52
2018-06-28T08:55:22.856Z,97498.19
2018-06-28T08:57:52.056Z,97502.45
2018-06-28T09:00:21.175Z,97496.78
2018-06-28T09:02:50.364Z,97502.42
2018-06-28T09:05:19.543Z,97495.06
2018-06-28T09:07:48.747Z,97500.02
2018-06-28T09:10:17.895Z,97490.95
2018-06-28T09:12:47.091Z,97488.73
2018-06-28T09:15:16.536Z,97492.53
2018-06-28T09:17:45.983Z,97485.02
2018-06-28T09:20:15.187Z,97482.95
2018-06-28T09:22:44.603Z,97483.36
2018-06-28T09:25:13.719Z,97484.97
2018-06-28T09:27:42.987Z,97483.06
2018-06-28T09:30:12.935Z,97478.34
2018-06-28T09:32:42.083Z,97477.87
2018-06-28T09:35:11.559Z,97484.73
2018-06-28T09:37:41.068Z,97473.48
2018-06-28T09:40:10.231Z,97476.52
2018-06-28T09:42:39.495Z,97476.28
2018-06-28T09:45:09.095Z,97476.17
2018-06-28T09:47:38.547Z,97467.98
2018-06-28T09:50:07.762Z,97473.88
2018-06-28T09:52:36.915Z,97472.14
2018-06-28T09:55:06.143Z,97463.80
2018-06-28T09:57:35.322Z,97459.44
2018-06-28T10:00:05.728Z,97454.85
2018-06-28T10:02:35.187Z,97457.64
2018-06-28T10:05:04.570Z,97462.75
2018-06-28T10:07:33.695Z,97454.47
2018-06-28T10:10:02.928Z,97450.05
2018-06-28T10:12:32.088Z,97444.02
2018-06-28T10:15:01.258Z,97452.39
2018-06-28T10:17:30.412Z,97452.02
2018-06-28T10:19:59.572Z,97439.27
2018-06-28T10:22:28.947Z,97434.85
2018-06-28T10:24:58.442Z,97434.20
2018-06-28T10:27:27.553Z,97425.73
2018-06-28T10:29:57.554Z,97429.10
2018-06-28T10:32:26.691Z,97425.95
2018-06-28T10:34:55.855Z,97417.11
2018-06-28T10:37:25.024Z,97420.79
2018-06-28T10:39:54.207Z,97413.06
2018-06-28T10:42:23.362Z,97411.02
2018-06-28T10:44:52.561Z,97415.13
2018-06-28T10:47:21.855Z,97407.53
2018-06-28T10:49:51.048Z,97402.34
2018-06-28T10:52:20.347Z,97405.07
2018-06-28T10:54:49.523Z,97402.50
2018-06-28T10:57:18.719Z,97399.11
2018-06-28T10:59:48.463Z,97400.54
2018-06-28T11:02:17.617Z,97393.87
2018-06-28T11:04:46.755Z,97393.65
2018-06-28T11:07:15.944Z,97392.39
2018-06-28T11:09:45.518Z,97393.09
2018-06-28T11:12:14.739Z,97388.38
2018-06-28T11:14:44.137Z,97386.89
2018-06-28T11:17:13.513Z,97387.77
2018-06-28T11:19:43.042Z,97386.11
2018-06-28T11:22:12.207Z,97377.49
2018-06-28T11:24:41.582Z,97378.27
2018-06-28T11:27:10.935Z,97372.37
2018-06-28T11:29:40.447Z,97365.13
2018-06-28T11:32:09.655Z,97367.45
2018-06-28T11:34:38.826Z,97366.72
2018-06-28T11:37:08.008Z,97374.41
2018-06-28T11:39:37.199Z,97361.19
2018-06-28T11:42:06.415Z,97357.19
2018-06-28T11:44:35.592Z,97349.85
2018-06-28T11:47:05.280Z,97359.64
2018-06-28T11:49:34.486Z,97353.02
2018-06-28T11:52:03.687Z,97349.48
2018-06-28T11:54:33.179Z,97350.12
2018-06-28T11:57:02.396Z,97348.55
2018-06-28T11:59:31.555Z,97345.76
2018-06-28T12:02:01.115Z,97339.29
2018-06-28T12:04:30.418Z,97340.52
2018-06-28T12:06:59.651Z,97330.56
2018-06-28T12:09:28.843Z,97321.41
2018-06-28T12:11:58.784Z,97328.09
2018-06-28T12:14:28.551Z,97327.58
2018-06-28T12:16:57.719Z,97319.03
2018-06-28T12:19:27.068Z,97317.81
2018-06-28T12:21:56.592Z,97314.64
2018-06-28T12:24:25.771Z,97318.83
2018-06-28T12:26:55.127Z,97313.81
2018-06-28T12:29:24.677Z,97314.33
2018-06-28T12:31:54.179Z,97303.18
2018-06-28T12:34:23.366Z,97299.39
2018-06-28T12:36:52.523Z,97300.00
2018-06-28T12:39:21.716Z,97300.88
2018-06-28T12:41:51.129Z,97294.33
2018-06-28T12:44:20.316Z,97298.67
2018-06-28T12:48:01.136Z,97296.05
2018-06-28T12:50:30.282Z,97290.00
2018-06-28T12:53:00.911Z,97292.63
2018-06-28T12:56:33.975Z,97292.20
2018-06-28T12:59:05.411Z,97290.88
2018-06-28T13:01:34.685Z,97289.77
2018-06-28T13:04:03.912Z,97284.86
2018-06-28T13:06:34.082Z,97277.17
2018-06-28T13:09:07.927Z,97273.77
2018-06-28T13:11:37.120Z,97265.39
2018-06-28T13:14:06.379Z,97270.09
2018-06-28T13:16:35.605Z,97264.45
2018-06-28T13:19:04.816Z,97250.25
2018-06-28T13:21:34.047Z,97255.16
2018-06-28T13:24:03.549Z,97260.30
2018-06-28T13:26:32.839Z,97255.41
2018-06-28T13:29:02.030Z,97255.10
2018-06-28T13:31:31.211Z,97259.08
2018-06-28T13:34:00.371Z,97262.38
2018-06-28T13:36:29.567Z,97251.83
2018-06-28T13:38:58.739Z,97251.42
2018-06-28T13:41:28.329Z,97244.11
2018-06-28T13:43:57.096Z,97237.38
2018-06-28T13:46:26.264Z,97228.31
2018-06-28T13:48:55.447Z,97223.72
2018-06-28T13:51:24.639Z,97218.42
2018-06-28T13:53:54.931Z,97212.12
2018-06-28T13:56:24.490Z,97215.12
2018-06-28T13:58:53.803Z,97218.83
2018-06-28T14:01:23.000Z,97222.92
2018-06-28T14:03:52.399Z,97210.80
2018-06-28T14:06:21.592Z,97208.12
2018-06-28T14:08:50.791Z,97194.84
2018-06-28T14:11:19.979Z,97204.34
2018-06-28T14:13:49.155Z,97206.97
2018-06-28T14:16:18.410Z,97203.31
2018-06-28T14:18:47.602Z,97196.56
2018-06-28T14:21:16.736Z,97196.45
2018-06-28T14:23:45.912Z,97194.91
2018-06-28T14:26:15.108Z,97200.10
2018-06-28T14:28:44.288Z,97190.63
2018-06-28T14:31:13.500Z,97183.98
2018-06-28T14:33:43.089Z,97192.86
2018-06-28T14:36:12.167Z,97182.08
2018-06-28T14:38:41.408Z,97185.10
2018-06-28T14:41:10.903Z,97182.58
2018-06-28T14:43:40.807Z,97175.61
2018-06-28T14:46:10.017Z,97167.67
2018-06-28T14:48:39.191Z,97160.50
2018-06-28T14:51:09.023Z,97164.23
2018-06-28T14:53:38.238Z,97170.27
2018-06-28T14:56:07.436Z,97165.09
2018-06-28T14:58:36.662Z,97157.07
2018-06-28T15:01:06.076Z,97146.20
2018-06-28T15:03:35.619Z,97145.61
2018-06-28T15:06:04.935Z,97135.48
2018-06-28T15:08:34.171Z,97134.70
2018-06-28T15:11:03.563Z,97129.02
2018-06-28T15:13:32.781Z,97137.43
2018-06-28T15:16:01.955Z,97144.23
2018-06-28T15:18:31.142Z,97148.73
2018-06-28T15:21:00.314Z,97145.59
2018-06-28T15:23:29.499Z,97137.70
2018-06-28T15:25:58.682Z,97134.58
2018-06-28T15:28:28.452Z,97143.33
2018-06-28T15:30:57.631Z,97138.45
2018-06-28T15:33:26.814Z,97139.06
2018-06-28T15:35:56.011Z,97145.65
2018-06-28T15:38:25.222Z,97143.44
2018-06-28T15:40:54.518Z,97138.38
2018-06-28T15:43:23.723Z,97140.07
2018-06-28T15:45:52.938Z,97140.73
2018-06-28T15:48:22.131Z,97131.67
2018-06-28T15:50:51.339Z,97134.20
2018-06-28T15:53:20.607Z,97132.04
2018-06-28T15:55:50.599Z,97137.09
2018-06-28T15:58:19.802Z,97132.82
2018-06-28T16:00:50.079Z,97133.95
2018-06-28T16:03:19.687Z,97127.66
2018-06-28T16:05:50.012Z,97124.98
2018-06-28T16:08:19.171Z,97128.45
2018-06-28T16:10:48.659Z,97119.88
2018-06-28T16:13:17.823Z,97122.34
2018-06-28T16:15:47.235Z,97111.95
2018-06-28T16:18:16.419Z,97107.55
2018-06-28T16:20:45.638Z,97104.70
2018-06-28T16:23:15.643Z,97103.38
2018-06-28T16:25:44.828Z,97107.81
2018-06-28T16:28:14.183Z,97098.22
2018-06-28T16:30:43.499Z,97101.34
2018-06-28T16:33:12.690Z,97103.42
2018-06-28T16:35:42.163Z,97104.04
2018-06-28T16:38:11.344Z,97101.22
2018-06-28T16:40:40.648Z,97100.97
2018-06-28T16:43:10.028Z,97102.56
2018-06-28T16:45:39.267Z,97104.13
2018-06-28T16:48:08.464Z,97098.80
2018-06-28T16:50:37.706Z,97100.33
2018-06-28T16:53:07.221Z,97097.70
2018-06-28T16:55:36.427Z,97095.70
2018-06-28T16:58:05.938Z,97094.39
2018-06-28T17:00:35.182Z,97091.20
2018-06-28T17:03:04.535Z,97091.90
2018-06-28T17:05:33.744Z,97087.13
2018-06-28T17:08:03.231Z,97092.70
2018-06-28T17:10:32.755Z,97086.48
2018-06-28T17:13:02.207Z,97089.87
2018-06-28T17:15:32.096Z,97093.23
2018-06-28T17:18:01.299Z,97095.08
2018-06-28T17:20:30.502Z,97090.12
2018-06-28T17:22:59.975Z,97093.12
2018-06-28T17:25:29.188Z,97091.02
2018-06-28T17:27:58.786Z,97089.66
2018-06-28T17:30:28.208Z,97088.83
2018-06-28T17:32:57.474Z,97097.84
2018-06-28T17:35:26.714Z,97095.62
2018-06-28T17:37:56.139Z,97102.28
2018-06-28T17:40:25.321Z,97102.81
2018-06-28T17:42:54.588Z,97098.33
2018-06-28T17:45:23.743Z,97103.28
2018-06-28T17:47:53.615Z,97107.72
2018-06-28T17:50:22.837Z,97101.41
2018-06-28T17:52:52.216Z,97103.67
2018-06-28T17:55:21.403Z,97104.55
2018-06-28T17:57:50.862Z,97098.17
2018-06-28T18:00:20.056Z,97091.77
2018-06-28T18:02:49.255Z,97093.80
2018-06-28T18:05:18.443Z,97099.93
2018-06-28T18:07:47.665Z,97104.95
2018-06-28T18:10:17.663Z,97107.31
2018-06-28T18:12:47.007Z,97107.52
2018-06-28T18:15:16.304Z,97103.13
2018-06-28T18:17:45.454Z,97109.89
2018-06-28T18:20:14.651Z,97108.10
2018-06-28T18:22:43.855Z,97105.84
2018-06-28T18:25:13.023Z,97110.02
2018-06-28T18:27:42.251Z,97105.58
2018-06-28T18:30:11.444Z,97105.29
2018-06-28T18:32:40.747Z,97104.63
2018-06-28T18:35:10.039Z,97105.53
2018-06-28T18:37:39.218Z,97107.38
2018-06-28T18:40:08.444Z,97109.10
2018-06-28T18:42:37.935Z,97112.52
2018-06-28T18:45:07.630Z,97109.67
2018-06-28T18:47:36.819Z,97101.44
2018-06-28T18:50:06.440Z,97106.70
2018-06-28T18:52:35.611Z,97109.22
2018-06-28T18:55:04.855Z,97110.12
2018-06-28T18:57:34.269Z,97113.44
2018-06-28T19:00:03.847Z,97114.00
2018-06-28T19:02:33.743Z,97114.03
2018-06-28T19:05:02.963Z,97109.22
2018-06-28T19:07:32.163Z,97111.04
2018-06-28T19:10:06.589Z,97116.78
2018-06-28T19:12:35.900Z,97108.77
2018-06-28T19:15:10.725Z,97116.70
2018-06-28T19:17:39.892Z,97113.25
2018-06-28T19:20:09.166Z,97111.16
2018-06-28T19:22:43.647Z,97110.20
2018-06-28T19:25:13.172Z,97118.84
2018-06-28T19:27:42.501Z,97124.56
2018-06-28T19:30:16.903Z,97124.11
2018-06-28T19:32:46.298Z,97122.41
2018-06-28T19:35:15.495Z,97124.83
2018-06-28T19:37:50.572Z,97130.78
2018-06-28T19:40:25.041Z,97134.06
2018-06-28T19:42:57.007Z,97134.66
2018-06-28T19:45:26.187Z,97133.55
2018-06-28T19:47:55.419Z,97136.69
2018-06-28T19:50:29.861Z,97133.85
2018-06-28T19:53:01.760Z,97136.92
2018-06-28T19:55:30.971Z,97135.55
2018-06-28T19:58:00.342Z,97147.89
2018-06-28T20:00:34.615Z,97146.97
2018-06-28T20:03:09.140Z,97156.08
2018-06-28T20:05:38.754Z,97162.53
2018-06-28T20:08:07.928Z,97156.46
2018-06-28T20:10:37.523Z,97164.23
2018-06-28T20:13:12.044Z,97164.86
2018-06-28T20:15:54.872Z,97165.09
2018-06-28T20:18:29.251Z,97163.91
2018-06-28T20:20:59.760Z,97164.41
2018-06-28T20:23:28.979Z,97165.26
2018-06-28T20:25:58.384Z,97165.66
2018-06-28T20:28:32.779Z,97168.80
2018-06-28T20:31:07.179Z,97164.38
2018-06-28T20:33:41.948Z,97162.38
2018-06-28T20:36:11.372Z,97164.30
2018-06-28T20:38:40.545Z,97165.39
2018-06-28T20:41:09.743Z,97169.38
2018-06-28T20:43:38.915Z,97170.19
2018-06-28T20:46:08.452Z,97171.73
2018-06-28T20:48:37.651Z,97176.69
2018-06-28T20:51:06.934Z,97182.30
2018-06-28T20:53:36.091Z,97179.05
2018-06-28T20:56:05.599Z,97177.00
2018-06-28T20:58:36.519Z,97184.22
2018-06-28T21:01:06.895Z,97184.02
2018-06-28T21:03:36.119Z,97176.67
2018-06-28T21:06:05.391Z,97178.86
2018-06-28T21:08:34.551Z,97179.57
2018-06-28T21:11:03.786Z,97180.05
2018-06-28T21:13:33.679Z,97186.58
2018-06-28T21:16:03.112Z,97180.37
2018-06-28T21:18:32.294Z,97175.58
2018-06-28T21:21:01.455Z,97172.51
2018-06-28T21:23:30.679Z,97173.78
2018-06-28T21:25:59.892Z,97176.70
2018-06-28T21:28:29.064Z,97168.16
2018-06-28T21:30:58.472Z,97176.14
2018-06-28T21:33:27.675Z,97175.00
2018-06-28T21:35:56.874Z,97179.58
2018-06-28T21:38:26.091Z,97174.97
2018-06-28T21:40:55.280Z,97178.22
2018-06-28T21:43:24.610Z,97182.85
2018-06-28T21:45:53.929Z,97186.18
2018-06-28T21:48:23.193Z,97178.52
2018-06-28T21:50:52.315Z,97178.37
2018-06-28T21:53:21.541Z,97179.95
2018-06-28T21:55:50.690Z,97170.38
2018-06-28T21:58:20.099Z,97174.55
2018-06-28T22:00:49.324Z,97170.17
2018-06-28T22:03:18.617Z,97169.19
2018-06-28T22:05:47.811Z,97170.03
2018-06-28T22:08:17.020Z,97165.37
2018-06-28T22:10:46.196Z,97170.20
2018-06-28T22:13:15.399Z,97164.11
2018-06-28T22:15:44.563Z,97165.51
2018-06-28T22:18:13.887Z,97164.14
2018-06-28T22:20:43.678Z,97162.88
2018-06-28T22:23:12.879Z,97161.87
2018-06-28T22:25:42.087Z,97163.89
2018-06-28T22:28:11.276Z,97162.28
2018-06-28T22:30:40.459Z,97158.84
2018-06-28T22:33:10.428Z,97154.18
2018-06-28T22:35:39.691Z,97154.42
2018-06-28T22:38:09.071Z,97154.66
2018-06-28T22:40:38.271Z,97148.54
2018-06-28T22:43:07.660Z,97154.52
2018-06-28T22:45:36.875Z,97147.91
2018-06-28T22:48:06.259Z,97151.06
2018-06-28T22:50:35.454Z,97153.84
2018-06-28T22:53:04.733Z,97150.16
2018-06-28T22:55:34.114Z,97148.37
2018-06-28T22:58:03.615Z,97152.64
2018-06-28T23:00:32.899Z,97153.30
2018-06-28T23:03:02.119Z,97154.27
2018-06-28T23:05:31.308Z,97158.61
2018-06-28T23:08:00.623Z,97150.91
2018-06-28T23:10:29.826Z,97148.07
2018-06-28T23:12:59.642Z,97158.52
2018-06-28T23:15:28.848Z,97154.66
2018-06-28T23:17:58.187Z,97153.80
2018-06-28T23:20:27.383Z,97148.50
2018-06-28T23:22:56.578Z,97148.58
2018-06-28T23:25:25.867Z,97148.50
2018-06-28T23:27:55.040Z,97150.82
2018-06-28T23:30:24.673Z,97149.39
2018-06-28T23:32:53.863Z,97150.91
2018-06-28T23:35:23.147Z,97157.40
2018-06-28T23:37:52.500Z,97151.39
2018-06-28T23:40:21.679Z,97150.20
2018-06-28T23:42:51.132Z,97162.06
2018-06-28T23:45:20.316Z,97159.27
2018-06-28T23:47:49.592Z,97164.55
2018-06-28T23:50:18.703Z,97167.88
2018-06-28T23:52:48.243Z,97171.92
2018-06-28T23:55:17.691Z,97172.72
2018-06-28T23:57:46.899Z,97172.01
